Terminal Aerodrome Forecast
Issued by NWS Cleveland, OH

Home | Current Version | Previous Version | Graphics & Text | Print | Product List | Glossary Off
Versions: 1 2 3 4 5 6 7 8 9 10 11 12 13 14 15 16 17 18 19 20 21 22 23 24 25 26 27 28 29

000
FTUS41 KCLE 311500 AAA
TAFCLE
TAF AMD
KCLE 311506Z 3115/0118 20008KT P6SM BKN150
     FM010200 20005KT P6SM BKN040 OVC250
     FM010700 VRB03KT 6SM -SN OVC040
     FM010900 08003KT 2SM -SN OVC012
     FM011200 06005KT 1SM -SN OVC007
     FM011600 06010KT 1/2SM SN OVC005=

USA.gov is the U.S. government's official web portal to all federal, state and local government web resources and services.